createdAt,value
2023-06-17T00:01:19.500Z,101591.28
2023-06-17T00:03:47.341Z,101593.97
2023-06-17T00:06:14.625Z,101601.47
2023-06-17T00:08:41.752Z,101594.69
2023-06-17T00:11:08.966Z,101588.78
2023-06-17T00:13:36.194Z,101581.72
2023-06-17T00:16:06.315Z,101586.94
2023-06-17T00:18:37.400Z,101586.09
2023-06-17T00:21:04.671Z,101592.16
2023-06-17T00:23:32.294Z,101586.69
2023-06-17T00:25:59.482Z,101585.28
2023-06-17T00:28:26.620Z,101594.00
2023-06-17T00:30:53.776Z,101589.91
2023-06-17T00:33:20.912Z,101589.75
2023-06-17T00:35:48.228Z,101591.88
2023-06-17T00:38:15.504Z,101597.38
2023-06-17T00:40:42.674Z,101590.31
2023-06-17T00:43:09.913Z,101582.13
2023-06-17T00:45:40.508Z,101576.50
2023-06-17T00:48:10.164Z,101578.19
2023-06-17T00:50:38.729Z,101569.47
2023-06-17T00:53:07.501Z,101568.88
2023-06-17T00:55:35.142Z,101560.16
2023-06-17T00:58:02.809Z,101564.78
2023-06-17T01:00:30.046Z,101571.72
2023-06-17T01:02:58.442Z,101568.19
2023-06-17T01:05:26.244Z,101570.31
2023-06-17T01:07:59.867Z,101570.31
2023-06-17T01:10:43.096Z,101569.31
2023-06-17T01:13:13.379Z,101562.97
2023-06-17T01:15:41.329Z,101555.78
2023-06-17T01:18:10.041Z,101557.63
2023-06-17T01:20:37.511Z,101556.78
2023-06-17T01:23:06.745Z,101563.69
2023-06-17T01:25:36.003Z,101562.41
2023-06-17T01:28:20.724Z,101563.53
2023-06-17T01:30:49.485Z,101562.72
2023-06-17T01:33:17.185Z,101560.16
2023-06-17T01:35:58.374Z,101568.63
2023-06-17T01:38:36.094Z,101568.91
2023-06-17T01:41:08.089Z,101571.72
2023-06-17T01:43:36.642Z,101571.16
2023-06-17T01:46:05.750Z,101572.03
2023-06-17T01:48:33.399Z,101571.16
2023-06-17T01:51:00.752Z,101576.09
2023-06-17T01:53:28.008Z,101569.47
2023-06-17T01:55:55.345Z,101571.72
2023-06-17T01:58:22.904Z,101568.91
2023-06-17T02:00:50.054Z,101568.22
2023-06-17T02:03:17.436Z,101568.47
2023-06-17T02:05:46.079Z,101561.84
2023-06-17T02:08:15.487Z,101560.41
2023-06-17T02:10:42.998Z,101564.09
2023-06-17T02:13:10.323Z,101560.00
2023-06-17T02:15:37.931Z,101557.75
2023-06-17T02:18:05.789Z,101557.06
2023-06-17T02:20:33.061Z,101555.22
2023-06-17T02:23:00.276Z,101552.25
2023-06-17T02:25:27.691Z,101550.41
2023-06-17T02:27:54.920Z,101550.69
2023-06-17T02:30:22.288Z,101558.19
2023-06-17T02:32:49.732Z,101551.97
2023-06-17T02:35:16.997Z,101556.63
2023-06-17T02:37:44.552Z,101549.56
2023-06-17T02:40:12.210Z,101543.38
2023-06-17T02:42:39.862Z,101544.50
2023-06-17T02:45:12.800Z,101547.31
2023-06-17T02:47:42.324Z,101534.16
2023-06-17T02:50:10.281Z,101541.94
2023-06-17T02:52:39.597Z,101544.66
2023-06-17T02:55:07.244Z,101549.16
2023-06-17T02:57:34.489Z,101553.25
2023-06-17T03:00:02.259Z,101558.19
2023-06-17T03:02:29.792Z,101556.34
2023-06-17T03:04:56.976Z,101556.78
2023-06-17T03:07:25.896Z,101552.25
2023-06-17T03:09:53.207Z,101549.16
2023-06-17T03:12:20.582Z,101554.09
2023-06-17T03:14:50.525Z,101558.75
2023-06-17T03:17:18.196Z,101564.66
2023-06-17T03:19:45.959Z,101554.78
2023-06-17T03:22:13.133Z,101562.97
2023-06-17T03:24:40.371Z,101563.66
2023-06-17T03:27:07.590Z,101561.13
2023-06-17T03:29:37.693Z,101566.22
2023-06-17T03:32:05.195Z,101560.69
2023-06-17T03:34:34.194Z,101558.75
2023-06-17T03:37:01.336Z,101561.69
2023-06-17T03:39:28.516Z,101553.81
2023-06-17T03:41:55.696Z,101550.84
2023-06-17T03:44:22.908Z,101546.31
2023-06-17T03:46:50.119Z,101546.16
2023-06-17T03:49:17.316Z,101548.56
2023-06-17T03:51:44.589Z,101552.53
2023-06-17T03:54:11.948Z,101552.25
2023-06-17T03:56:39.146Z,101551.28
2023-06-17T03:59:06.624Z,101544.66
2023-06-17T04:01:33.880Z,101553.53
2023-06-17T04:04:01.263Z,101550.13
2023-06-17T04:06:28.696Z,101555.22
2023-06-17T04:08:55.940Z,101556.06
2023-06-17T04:11:23.123Z,101555.78
2023-06-17T04:13:50.285Z,101551.97
2023-06-17T04:16:17.525Z,101543.78
2023-06-17T04:18:44.753Z,101548.84
2023-06-17T04:21:12.013Z,101552.81
2023-06-17T04:23:39.148Z,101553.25
2023-06-17T04:26:06.384Z,101550.13
2023-06-17T04:28:34.084Z,101552.53
2023-06-17T04:31:02.610Z,101549.97
2023-06-17T04:33:32.116Z,101556.63
2023-06-17T04:35:59.428Z,101550.25
2023-06-17T04:38:26.593Z,101548.25
2023-06-17T04:40:54.267Z,101546.31
2023-06-17T04:43:24.346Z,101552.78
2023-06-17T04:45:52.896Z,101558.72
2023-06-17T04:48:20.953Z,101552.38
2023-06-17T04:50:49.230Z,101547.28
2023-06-17T04:53:16.496Z,101550.53
2023-06-17T04:55:44.540Z,101550.25
2023-06-17T04:58:11.747Z,101552.78
2023-06-17T05:00:39.124Z,101551.09
2023-06-17T05:03:06.606Z,101551.94
2023-06-17T05:05:33.980Z,101559.72
2023-06-17T05:08:01.307Z,101542.63
2023-06-17T05:10:28.500Z,101548.25
2023-06-17T05:12:55.762Z,101551.66
2023-06-17T05:15:22.980Z,101546.81
2023-06-17T05:17:50.394Z,101542.44
2023-06-17T05:20:17.803Z,101545.69
2023-06-17T05:22:45.275Z,101544.25
2023-06-17T05:25:12.442Z,101541.00
2023-06-17T05:27:39.917Z,101549.88
2023-06-17T05:30:07.867Z,101557.09
2023-06-17T05:32:35.129Z,101554.69
2023-06-17T05:35:02.425Z,101558.38
2023-06-17T05:37:29.732Z,101551.84
2023-06-17T05:39:56.941Z,101550.00
2023-06-17T05:42:24.093Z,101553.25
2023-06-17T05:44:51.268Z,101557.94
2023-06-17T05:47:18.427Z,101559.59
2023-06-17T05:49:45.718Z,101559.78
2023-06-17T05:52:12.917Z,101556.81
2023-06-17T05:54:42.880Z,101562.75
2023-06-17T05:57:09.995Z,101565.97
2023-06-17T05:59:37.157Z,101559.78
2023-06-17T06:02:04.691Z,101563.03
2023-06-17T06:04:31.944Z,101562.88
2023-06-17T06:06:59.114Z,101568.25
2023-06-17T06:09:26.268Z,101569.34
2023-06-17T06:11:53.524Z,101566.09
2023-06-17T06:14:20.764Z,101571.31
2023-06-17T06:16:47.985Z,101577.13
2023-06-17T06:19:15.258Z,101578.22
2023-06-17T06:21:42.405Z,101573.09
2023-06-17T06:24:09.625Z,101571.97
2023-06-17T06:26:36.946Z,101572.69
2023-06-17T06:29:04.110Z,101580.72
2023-06-17T06:31:31.528Z,101584.16
2023-06-17T06:33:58.681Z,101580.75
2023-06-17T06:36:25.912Z,101587.41
2023-06-17T06:38:53.087Z,101582.31
2023-06-17T06:41:20.505Z,101589.19
2023-06-17T06:43:47.717Z,101583.09
2023-06-17T06:46:16.307Z,101592.59
2023-06-17T06:48:43.792Z,101597.56
2023-06-17T06:51:11.108Z,101602.50
2023-06-17T06:53:38.430Z,101598.63
2023-06-17T06:56:05.677Z,101602.16
2023-06-17T06:58:34.157Z,101599.84
2023-06-17T07:01:01.405Z,101598.38
2023-06-17T07:03:28.998Z,101601.16
2023-06-17T07:05:56.421Z,101605.94
2023-06-17T07:08:25.773Z,101599.66
2023-06-17T07:10:53.028Z,101600.75
2023-06-17T07:13:20.221Z,101595.91
2023-06-17T07:15:48.152Z,101596.00
2023-06-17T07:18:16.142Z,101599.78
2023-06-17T07:20:43.669Z,101603.16
2023-06-17T07:23:11.025Z,101611.81
2023-06-17T07:25:38.263Z,101614.44
2023-06-17T07:28:06.675Z,101608.69
2023-06-17T07:30:34.178Z,101608.53
2023-06-17T07:33:04.361Z,101621.09
2023-06-17T07:35:32.152Z,101614.09
2023-06-17T07:37:59.340Z,101612.22
2023-06-17T07:40:26.696Z,101614.41
2023-06-17T07:42:53.885Z,101617.94
2023-06-17T07:45:21.113Z,101614.69
2023-06-17T07:47:49.505Z,101620.63
2023-06-17T07:50:16.724Z,101620.03
2023-06-17T07:52:43.950Z,101618.47
2023-06-17T07:55:12.066Z,101614.03
2023-06-17T07:57:39.253Z,101622.63
2023-06-17T08:00:11.040Z,101618.63
2023-06-17T08:02:38.364Z,101616.31
2023-06-17T08:05:06.247Z,101619.47
2023-06-17T08:07:33.596Z,101616.19
2023-06-17T08:15:23.862Z,101610.16
2023-06-17T08:17:52.096Z,101610.56
2023-06-17T08:20:20.318Z,101608.59
2023-06-17T08:22:47.801Z,101607.72
2023-06-17T08:25:15.042Z,101611.00
2023-06-17T08:27:48.718Z,101611.66
2023-06-17T08:30:16.195Z,101608.19
2023-06-17T08:32:43.421Z,101609.34
2023-06-17T08:35:11.107Z,101613.59
2023-06-17T08:37:38.363Z,101602.38
2023-06-17T08:40:06.343Z,101614.34
2023-06-17T08:42:33.641Z,101612.50
2023-06-17T08:45:04.126Z,101615.91
2023-06-17T08:47:31.613Z,101612.38
2023-06-17T08:49:59.167Z,101616.16
2023-06-17T08:52:28.532Z,101614.97
2023-06-17T08:54:56.466Z,101621.38
2023-06-17T08:57:23.808Z,101627.25
2023-06-17T08:59:51.182Z,101621.69
2023-06-17T09:02:18.906Z,101616.03
2023-06-17T09:04:46.237Z,101614.47
2023-06-17T09:07:14.145Z,101608.63
2023-06-17T09:09:41.736Z,101614.53
2023-06-17T09:12:09.767Z,101609.81
2023-06-17T09:14:37.890Z,101606.50
2023-06-17T09:17:05.271Z,101602.25
2023-06-17T09:19:33.472Z,101605.13
2023-06-17T09:22:07.958Z,101595.66
2023-06-17T09:24:35.291Z,101602.84
2023-06-17T09:27:04.030Z,101606.91
2023-06-17T09:29:31.365Z,101608.44
2023-06-17T09:31:59.277Z,101604.72
2023-06-17T09:34:28.050Z,101613.59
2023-06-17T09:37:01.666Z,101617.34
2023-06-17T09:39:34.249Z,101620.97
2023-06-17T09:42:09.356Z,101616.50
2023-06-17T09:44:41.056Z,101605.25
2023-06-17T09:47:09.560Z,101613.94
2023-06-17T09:49:39.860Z,101604.91
2023-06-17T09:52:10.342Z,101602.31
2023-06-17T09:54:38.676Z,101611.84
2023-06-17T09:57:11.007Z,101609.88
2023-06-17T09:59:39.084Z,101609.03
2023-06-17T10:02:06.834Z,101606.31
2023-06-17T10:04:36.511Z,101618.16
2023-06-17T10:07:07.378Z,101615.50
2023-06-17T10:09:35.254Z,101610.81
2023-06-17T10:12:04.080Z,101607.28
2023-06-17T10:14:35.075Z,101609.81
2023-06-17T10:17:04.575Z,101605.81
2023-06-17T10:19:35.006Z,101608.66
2023-06-17T10:22:05.803Z,101612.19
2023-06-17T10:24:33.438Z,101609.03
2023-06-17T10:27:06.505Z,101605.13
2023-06-17T10:29:34.295Z,101605.78
2023-06-17T10:32:20.447Z,101600.41
2023-06-17T10:35:06.451Z,101605.31
2023-06-17T10:37:46.832Z,101597.03
2023-06-17T10:40:28.117Z,101604.84
2023-06-17T10:43:04.335Z,101606.84
2023-06-17T10:45:52.219Z,101601.28
2023-06-17T10:48:24.371Z,101593.50
2023-06-17T10:50:53.497Z,101599.91
2023-06-17T10:53:37.602Z,101595.34
2023-06-17T10:56:06.212Z,101587.41
2023-06-17T10:58:39.047Z,101583.56
2023-06-17T11:01:07.883Z,101580.00
2023-06-17T11:03:36.179Z,101580.72
2023-06-17T11:06:05.162Z,101580.84
2023-06-17T11:08:34.926Z,101577.00
2023-06-17T11:11:16.410Z,101581.03
2023-06-17T11:13:52.078Z,101579.00
2023-06-17T11:16:19.693Z,101569.91
2023-06-17T11:18:50.013Z,101572.44
2023-06-17T11:21:18.800Z,101567.06
2023-06-17T11:23:46.016Z,101567.41
2023-06-17T11:26:13.937Z,101560.31
2023-06-17T11:28:41.312Z,101563.50
2023-06-17T11:31:09.540Z,101563.34
2023-06-17T11:33:40.117Z,101559.81
2023-06-17T11:36:15.183Z,101562.53
2023-06-17T11:38:44.193Z,101555.91
2023-06-17T11:41:11.494Z,101561.47
2023-06-17T11:43:38.856Z,101558.63
2023-06-17T11:46:06.939Z,101555.06
2023-06-17T11:48:35.164Z,101556.41
2023-06-17T11:51:03.187Z,101555.38
2023-06-17T11:53:34.885Z,101560.09
2023-06-17T11:56:09.365Z,101555.03
2023-06-17T11:58:41.187Z,101558.03
2023-06-17T12:01:10.555Z,101550.97
2023-06-17T12:03:38.191Z,101554.69
2023-06-17T12:06:06.400Z,101545.88
2023-06-17T12:08:38.151Z,101541.97
2023-06-17T12:11:08.549Z,101544.81
2023-06-17T12:13:40.512Z,101537.94
2023-06-17T12:16:28.852Z,101532.34
2023-06-17T12:18:56.051Z,101528.94
2023-06-17T12:21:24.939Z,101522.72
2023-06-17T12:23:54.722Z,101524.91
2023-06-17T12:26:25.367Z,101520.84
2023-06-17T12:28:53.352Z,101528.38
2023-06-17T12:31:21.020Z,101525.91
2023-06-17T12:33:48.642Z,101521.44
2023-06-17T12:36:17.058Z,101524.44
2023-06-17T12:38:45.847Z,101515.69
2023-06-17T12:41:13.584Z,101509.91
2023-06-17T12:43:42.141Z,101514.84
2023-06-17T12:46:09.878Z,101506.38
2023-06-17T12:48:37.495Z,101509.19
2023-06-17T12:51:05.180Z,101507.63
2023-06-17T12:53:32.454Z,101504.72
2023-06-17T12:55:59.995Z,101499.31
2023-06-17T12:58:27.595Z,101500.38
2023-06-17T13:00:55.284Z,101498.91
2023-06-17T13:03:22.931Z,101496.13
2023-06-17T13:05:51.531Z,101498.25
2023-06-17T13:08:19.253Z,101494.44
2023-06-17T13:10:47.014Z,101491.78
2023-06-17T13:13:14.265Z,101486.00
2023-06-17T13:15:41.766Z,101495.38
2023-06-17T13:18:09.520Z,101487.06
2023-06-17T13:20:37.172Z,101480.34
2023-06-17T13:23:05.689Z,101477.84
2023-06-17T13:25:32.930Z,101478.56
2023-06-17T13:28:00.260Z,101474.03
2023-06-17T13:30:27.590Z,101463.31
2023-06-17T13:32:54.828Z,101477.84
2023-06-17T13:35:22.711Z,101468.41
2023-06-17T13:37:50.594Z,101471.13
2023-06-17T13:40:18.092Z,101474.47
2023-06-17T13:42:45.379Z,101459.19
2023-06-17T13:45:15.582Z,101469.59
2023-06-17T13:47:43.060Z,101469.09
2023-06-17T13:50:10.912Z,101464.34
2023-06-17T13:52:38.284Z,101466.69
2023-06-17T13:55:06.019Z,101463.19
2023-06-17T13:57:33.213Z,101473.53
2023-06-17T14:00:00.493Z,101463.38
2023-06-17T14:02:27.751Z,101465.41
2023-06-17T14:04:55.833Z,101459.69
2023-06-17T14:07:23.011Z,101461.09
2023-06-17T14:09:50.152Z,101452.03
2023-06-17T14:12:17.346Z,101458.34
2023-06-17T14:14:46.171Z,101455.63
2023-06-17T14:17:14.401Z,101446.25
2023-06-17T14:19:41.542Z,101442.91
2023-06-17T14:22:10.478Z,101445.41
2023-06-17T14:24:39.934Z,101442.06
2023-06-17T14:27:43.574Z,101433.66
2023-06-17T14:30:13.212Z,101431.00
2023-06-17T14:32:45.881Z,101433.56
2023-06-17T14:35:15.921Z,101423.50
2023-06-17T14:37:45.826Z,101422.94
2023-06-17T14:40:14.514Z,101411.03
2023-06-17T14:42:41.888Z,101413.47
2023-06-17T14:45:11.716Z,101415.72
2023-06-17T14:47:39.959Z,101411.81
2023-06-17T14:50:09.071Z,101414.19
2023-06-17T14:52:36.310Z,101418.41
2023-06-17T14:55:04.439Z,101416.84
2023-06-17T14:57:33.698Z,101402.19
2023-06-17T15:00:01.508Z,101408.03
2023-06-17T15:02:38.807Z,101414.16
2023-06-17T15:05:06.380Z,101409.53
2023-06-17T15:07:33.527Z,101406.13
2023-06-17T15:10:00.740Z,101408.41
2023-06-17T15:12:28.172Z,101416.69
2023-06-17T15:14:55.850Z,101410.88
2023-06-17T15:17:23.421Z,101405.50
2023-06-17T15:19:50.662Z,101404.78
2023-06-17T15:22:17.846Z,101407.34
2023-06-17T15:24:44.993Z,101400.94
2023-06-17T15:27:12.152Z,101407.97
2023-06-17T15:29:40.407Z,101413.06
2023-06-17T15:32:07.986Z,101407.97
2023-06-17T15:34:35.146Z,101404.44
2023-06-17T15:37:02.275Z,101408.69
2023-06-17T15:39:29.670Z,101403.47
2023-06-17T15:41:56.918Z,101402.22
2023-06-17T15:44:24.240Z,101411.44
2023-06-17T15:46:52.029Z,101411.03
2023-06-17T15:49:19.288Z,101415.19
2023-06-17T15:51:46.449Z,101421.50
2023-06-17T15:54:13.692Z,101418.59
2023-06-17T15:56:40.890Z,101407.91
2023-06-17T15:59:08.395Z,101418.56
2023-06-17T16:01:35.803Z,101414.44
2023-06-17T16:04:24.570Z,101418.84
2023-06-17T16:06:54.127Z,101417.16
2023-06-17T16:09:21.482Z,101413.84
2023-06-17T16:11:48.655Z,101419.88
2023-06-17T16:14:15.820Z,101412.81
2023-06-17T16:16:42.969Z,101418.66
2023-06-17T16:19:10.161Z,101417.19
2023-06-17T16:21:37.356Z,101422.00
2023-06-17T16:24:04.714Z,101421.19
2023-06-17T16:26:32.336Z,101417.22
2023-06-17T16:28:59.518Z,101416.78
2023-06-17T16:31:26.744Z,101421.16
2023-06-17T16:33:55.244Z,101414.25
2023-06-17T16:36:22.813Z,101408.78
2023-06-17T16:38:50.034Z,101406.94
2023-06-17T16:41:17.283Z,101410.25
2023-06-17T16:43:44.525Z,101400.66
2023-06-17T16:46:11.812Z,101403.97
2023-06-17T16:48:39.042Z,101403.31
2023-06-17T16:51:07.277Z,101401.41
2023-06-17T16:53:34.902Z,101400.56
2023-06-17T16:56:02.652Z,101402.28
2023-06-17T16:58:30.271Z,101400.56
2023-06-17T17:00:57.589Z,101399.28
2023-06-17T17:03:25.010Z,101394.28
2023-06-17T17:05:52.328Z,101399.50
2023-06-17T17:08:19.641Z,101406.19
2023-06-17T17:10:46.868Z,101412.72
2023-06-17T17:13:14.131Z,101406.66
2023-06-17T17:15:41.678Z,101407.47
2023-06-17T17:18:09.123Z,101414.34
2023-06-17T17:20:36.327Z,101404.53
2023-06-17T17:23:04.198Z,101408.91
2023-06-17T17:25:31.819Z,101406.72
2023-06-17T17:27:59.002Z,101414.84
2023-06-17T17:30:26.729Z,101415.47
2023-06-17T17:32:55.483Z,101422.25
2023-06-17T17:35:23.144Z,101420.38
2023-06-17T17:37:50.386Z,101418.63
2023-06-17T17:40:17.936Z,101421.97
2023-06-17T17:42:45.242Z,101426.03
2023-06-17T17:45:12.518Z,101431.91
2023-06-17T17:47:39.805Z,101428.66
2023-06-17T17:50:07.971Z,101438.81
2023-06-17T17:52:35.158Z,101441.94
2023-06-17T17:55:03.140Z,101444.47
2023-06-17T17:57:30.768Z,101441.88
2023-06-17T17:59:58.015Z,101446.63
2023-06-17T18:02:26.115Z,101461.41
2023-06-17T18:04:53.489Z,101456.00
2023-06-17T18:07:20.853Z,101457.53
2023-06-17T18:09:48.153Z,101462.34
2023-06-17T18:12:15.496Z,101461.75
2023-06-17T18:14:42.770Z,101466.97
2023-06-17T18:17:10.124Z,101467.72
2023-06-17T18:19:37.314Z,101468.94
2023-06-17T18:22:04.858Z,101462.38
2023-06-17T18:24:32.172Z,101471.88
2023-06-17T18:26:59.641Z,101472.13
2023-06-17T18:29:26.876Z,101468.03
2023-06-17T18:31:54.101Z,101465.84
2023-06-17T18:34:21.371Z,101459.00
2023-06-17T18:36:48.678Z,101460.91
2023-06-17T18:39:16.040Z,101462.13
2023-06-17T18:41:43.595Z,101456.59
2023-06-17T18:44:14.293Z,101459.16
2023-06-17T18:46:42.092Z,101463.25
2023-06-17T18:49:11.495Z,101461.56
2023-06-17T18:51:38.726Z,101461.91
2023-06-17T18:54:06.084Z,101459.91
2023-06-17T18:56:33.293Z,101460.31
2023-06-17T18:59:00.729Z,101467.59
2023-06-17T19:01:29.468Z,101475.22
2023-06-17T19:03:57.972Z,101473.88
2023-06-17T19:06:25.230Z,101478.97
2023-06-17T19:08:52.512Z,101472.25
2023-06-17T19:11:20.185Z,101471.72
2023-06-17T19:13:47.523Z,101478.19
2023-06-17T19:16:16.973Z,101475.00
2023-06-17T19:18:44.279Z,101473.28
2023-06-17T19:21:11.649Z,101478.91
2023-06-17T19:23:38.869Z,101476.88
2023-06-17T19:26:06.471Z,101486.00
2023-06-17T19:28:34.435Z,101487.84
2023-06-17T19:31:01.576Z,101488.41
2023-06-17T19:33:29.268Z,101492.59
2023-06-17T19:35:56.581Z,101494.81
2023-06-17T19:38:23.805Z,101498.72
2023-06-17T19:40:50.976Z,101493.84
2023-06-17T19:43:23.365Z,101494.34
2023-06-17T19:45:53.374Z,101495.88
2023-06-17T19:48:20.729Z,101494.34
2023-06-17T19:50:47.903Z,101500.56
2023-06-17T19:53:15.120Z,101492.69
2023-06-17T19:55:42.413Z,101498.75
2023-06-17T19:58:09.609Z,101503.16
2023-06-17T20:00:38.458Z,101509.56
2023-06-17T20:03:06.055Z,101506.66
2023-06-17T20:05:33.430Z,101514.25
2023-06-17T20:08:00.681Z,101510.22
2023-06-17T20:10:27.887Z,101518.81
2023-06-17T20:12:59.128Z,101516.78
2023-06-17T20:15:27.364Z,101517.81
2023-06-17T20:17:54.709Z,101528.75
2023-06-17T20:20:22.417Z,101525.88
2023-06-17T20:22:51.212Z,101519.97
2023-06-17T20:25:18.638Z,101521.84
2023-06-17T20:27:45.883Z,101523.31
2023-06-17T20:30:13.688Z,101524.53
2023-06-17T20:32:42.055Z,101523.47
2023-06-17T20:35:09.810Z,101520.88
2023-06-17T20:37:37.476Z,101531.34
2023-06-17T20:40:05.640Z,101534.88
2023-06-17T20:42:32.849Z,101534.38
2023-06-17T20:45:00.097Z,101536.72
2023-06-17T20:47:28.262Z,101533.81
2023-06-17T20:49:55.562Z,101539.78
2023-06-17T20:52:23.083Z,101541.81
2023-06-17T20:54:50.368Z,101529.81
2023-06-17T20:57:17.711Z,101537.41
2023-06-17T20:59:45.089Z,101531.47
2023-06-17T21:02:13.391Z,101538.84
2023-06-17T21:04:40.635Z,101533.28
2023-06-17T21:07:07.866Z,101542.16
2023-06-17T21:09:35.568Z,101535.94
2023-06-17T21:12:03.294Z,101542.13
2023-06-17T21:14:33.053Z,101529.56
2023-06-17T21:17:00.375Z,101533.97
2023-06-17T21:19:27.588Z,101528.69
2023-06-17T21:21:54.869Z,101531.53
2023-06-17T21:24:22.172Z,101528.00
2023-06-17T21:26:49.415Z,101535.72
2023-06-17T21:29:16.712Z,101536.75
2023-06-17T21:31:43.917Z,101527.34
2023-06-17T21:34:11.674Z,101532.53
2023-06-17T21:36:39.028Z,101531.94
2023-06-17T21:39:06.454Z,101534.25
2023-06-17T21:41:34.050Z,101531.09
2023-06-17T21:44:01.300Z,101532.78
2023-06-17T21:46:31.807Z,101526.19
2023-06-17T21:48:59.329Z,101523.59
2023-06-17T21:51:26.584Z,101525.13
2023-06-17T21:53:53.869Z,101521.31
2023-06-17T21:56:21.323Z,101515.00
2023-06-17T22:01:20.392Z,101509.47
2023-06-17T22:03:47.877Z,101518.84
2023-06-17T22:06:15.233Z,101518.63
2023-06-17T22:08:44.002Z,101521.84
2023-06-17T22:11:12.682Z,101519.56
2023-06-17T22:13:40.831Z,101520.88
2023-06-17T22:16:08.467Z,101515.69
2023-06-17T22:18:35.769Z,101517.25
2023-06-17T22:21:03.020Z,101527.63
2023-06-17T22:23:30.276Z,101527.44
2023-06-17T22:25:57.720Z,101526.59
2023-06-17T22:28:25.078Z,101526.22
2023-06-17T22:30:52.342Z,101528.81
2023-06-17T22:33:19.689Z,101533.00
2023-06-17T22:35:46.877Z,101534.53
2023-06-17T22:38:17.509Z,101534.06
2023-06-17T22:40:44.805Z,101535.53
2023-06-17T22:43:13.837Z,101524.94
2023-06-17T22:45:41.048Z,101533.03
2023-06-17T22:48:08.425Z,101520.81
2023-06-17T22:50:35.778Z,101532.38
2023-06-17T22:53:03.139Z,101528.19
2023-06-17T22:55:30.365Z,101530.59
2023-06-17T22:57:57.637Z,101531.66
2023-06-17T23:00:25.071Z,101536.34
2023-06-17T23:02:52.355Z,101536.47
2023-06-17T23:05:19.603Z,101530.78
2023-06-17T23:07:47.266Z,101532.78
2023-06-17T23:10:14.494Z,101531.47
2023-06-17T23:12:41.768Z,101527.69
2023-06-17T23:15:09.327Z,101532.09
2023-06-17T23:17:36.629Z,101533.22
2023-06-17T23:20:04.289Z,101538.75
2023-06-17T23:22:34.978Z,101523.06
2023-06-17T23:25:07.083Z,101527.84
2023-06-17T23:27:35.403Z,101525.47
2023-06-17T23:30:02.740Z,101540.91
2023-06-17T23:32:30.204Z,101533.72
2023-06-17T23:34:57.681Z,101536.41
2023-06-17T23:37:25.578Z,101539.41
2023-06-17T23:39:52.817Z,101531.97
2023-06-17T23:42:20.093Z,101540.03
2023-06-17T23:44:48.737Z,101534.97
2023-06-17T23:47:19.881Z,101533.56
2023-06-17T23:49:47.423Z,101539.72
2023-06-17T23:52:14.699Z,101534.06
2023-06-17T23:54:42.067Z,101529.53
2023-06-17T23:57:09.299Z,101534.63
2023-06-17T23:59:37.068Z,101535.69
